Time;durP1;ratioP1;P1;durP2;ratioP2;P2;SDS_P1;SDS_P2;PMS_P1;PMS_P2;Temp;Humidity;BMP_temperature;BMP_pressure;BME280_temperature;BME280_humidity;BME280_pressure;Samples;Min_cycle;Max_cycle;Signal;HPM_P1;HPM_P2
2022/05/10 00:02:02;;;;;;;33.55;16.60;;;;;;;15.66;80.62;102016.81;5047963;28;20080;-85
2022/05/10 00:04:28;;;;;;;27.13;16.40;;;;;;;15.58;81.25;102014.09;5046563;28;20024;-86
2022/05/10 00:06:54;;;;;;;30.45;17.15;;;;;;;15.57;82.09;102016.94;5050796;28;20017;-86
2022/05/10 00:09:27;;;;;;;30.67;17.88;;;;;;;15.55;81.65;102008.19;5046613;28;20049;-86
2022/05/10 00:11:52;;;;;;;30.98;17.20;;;;;;;15.48;81.77;101998.09;5045113;28;20376;-86
2022/05/10 00:14:18;;;;;;;31.10;18.13;;;;;;;15.45;81.74;102003.78;5047288;28;20045;-86
2022/05/10 00:16:44;;;;;;;34.40;18.10;;;;;;;15.47;81.95;102004.47;5047194;28;20025;-87
2022/05/10 00:19:14;;;;;;;36.97;18.58;;;;;;;15.43;82.40;101992.34;5048786;28;20025;-87
2022/05/10 00:21:40;;;;;;;39.33;18.87;;;;;;;15.46;82.73;101997.41;5049216;28;20028;-87
2022/05/10 00:24:06;;;;;;;30.42;18.30;;;;;;;15.42;81.79;101990.66;5044651;28;20025;-87
2022/05/10 00:26:31;;;;;;;26.52;17.75;;;;;;;15.42;82.96;101990.66;5049411;28;20029;-87
2022/05/10 00:28:57;;;;;;;32.63;17.75;;;;;;;15.40;82.32;101986.47;5047897;28;20509;-87
2022/05/10 00:31:22;;;;;;;32.63;18.33;;;;;;;15.35;82.76;101983.41;5045080;28;20028;-85
2022/05/10 00:33:47;;;;;;;25.48;17.88;;;;;;;15.33;83.24;101982.75;5046983;28;20041;-86
2022/05/10 00:36:15;;;;;;;34.88;19.15;;;;;;;15.26;83.31;101985.25;5044019;28;20122;-86
2022/05/10 00:38:41;;;;;;;29.73;17.98;;;;;;;15.23;83.74;101977.50;5045427;28;20029;-86
2022/05/10 00:41:24;;;;;;;36.72;19.02;;;;;;;15.19;83.51;101974.28;5050680;28;20336;-85
2022/05/10 00:43:55;;;;;;;32.75;18.83;;;;;;;15.16;85.17;101976.47;5048334;28;20487;-86
2022/05/10 00:46:32;;;;;;;38.50;18.80;;;;;;;15.18;83.63;101979.84;5052700;28;20051;-85
2022/05/10 00:49:25;;;;;;;39.03;18.13;;;;;;;15.15;83.01;101972.09;5040887;28;20032;-85
2022/05/10 00:52:01;;;;;;;33.17;18.23;;;;;;;15.11;84.78;101974.28;5052066;28;20541;-84
2022/05/10 00:54:36;;;;;;;31.30;18.63;;;;;;;15.05;84.78;101966.84;5052841;28;20039;-85
2022/05/10 00:57:20;;;;;;;31.77;17.98;;;;;;;15.03;86.04;101955.41;5053613;28;20028;-85
2022/05/10 01:00:21;;;;;;;31.77;17.17;;;;;;;14.97;84.94;101956.03;5060474;28;20028;-85
2022/05/10 01:02:55;;;;;;;;;;;;;;;15.02;80.52;101954.56;5054984;28;20511;-84
2022/05/10 01:05:44;;;;;;;29.58;18.05;;;;;;;14.94;85.51;101945.63;5051076;28;19952;-87
2022/05/10 01:08:22;;;;;;;35.33;19.10;;;;;;;14.90;86.04;101943.25;5034134;28;20077;-86
2022/05/10 01:10:53;;;;;;;32.80;18.55;;;;;;;14.91;87.00;101953.00;5053367;28;20464;-86
2022/05/10 01:13:31;;;;;;;31.23;18.80;;;;;;;14.88;86.50;101956.03;5051238;28;20129;-86
2022/05/10 01:16:06;;;;;;;32.03;18.17;;;;;;;14.87;85.92;101948.97;5052201;28;20048;-86
2022/05/10 01:18:31;;;;;;;30.98;18.08;;;;;;;14.85;86.90;101942.91;5036097;28;20120;-86
2022/05/10 01:21:06;;;;;;;32.65;18.23;;;;;;;14.79;86.74;101940.84;5052467;28;20151;-86
2022/05/10 01:24:03;;;;;;;33.65;18.90;;;;;;;14.75;85.94;101936.81;5056457;28;20024;-86
2022/05/10 01:27:03;;;;;;;35.03;19.17;;;;;;;14.68;86.59;101938.44;5040042;28;20024;-86
2022/05/10 01:29:33;;;;;;;27.63;17.90;;;;;;;14.65;88.21;101934.25;5054936;28;20024;-86
2022/05/10 01:34:51;;;;;;;33.78;19.65;;;;;;;14.57;89.30;101927.97;5059087;28;20032;-86
2022/05/10 01:37:22;;;;;;;38.87;19.33;;;;;;;14.56;88.57;101924.41;5034607;28;20039;-86
2022/05/10 01:39:55;;;;;;;37.47;20.07;;;;;;;14.49;88.98;101915.31;5049240;28;20032;-86
2022/05/10 01:42:40;;;;;;;28.70;19.42;;;;;;;14.50;88.17;101917.84;5048413;28;20044;-85
2022/05/10 01:45:12;;;;;;;34.20;19.77;;;;;;;14.51;89.15;101916.84;5032652;28;20059;-85
2022/05/10 01:48:05;;;;;;;32.25;20.70;;;;;;;14.45;87.68;101895.16;5049852;28;20449;-87
2022/05/10 01:50:52;;;;;;;36.38;20.35;;;;;;;14.48;88.20;101911.78;5048136;28;20048;-85
2022/05/10 01:53:33;;;;;;;39.15;21.52;;;;;;;14.47;89.69;101904.72;5054646;28;20537;-85
2022/05/10 01:56:20;;;;;;;32.22;21.23;;;;;;;14.47;88.89;101899.34;5047330;28;20131;-86
2022/05/10 01:58:46;;;;;;;32.15;20.55;;;;;;;14.48;89.09;101898.34;5050695;28;20017;-86
2022/05/10 02:01:23;;;;;;;33.92;20.52;;;;;;;14.49;89.80;101899.19;5034477;28;20353;-84
2022/05/10 02:03:54;;;;;;;37.83;20.92;;;;;;;14.48;89.48;101901.03;5048459;28;20029;-84
2022/05/10 02:06:45;;;;;;;35.55;20.83;;;;;;;14.49;88.95;101899.19;5049586;28;20020;-85
2022/05/10 02:09:38;;;;;;;39.08;20.30;;;;;;;14.46;88.32;101886.06;5039261;28;20028;-86
2022/05/10 02:12:14;;;;;;;40.67;21.13;;;;;;;14.49;89.93;101891.13;5050011;28;20452;-85
2022/05/10 02:14:56;;;;;;;36.25;21.02;;;;;;;14.49;89.97;101886.59;5049281;28;20459;-86
2022/05/10 02:17:27;;;;;;;36.17;21.10;;;;;;;14.45;90.39;101890.59;5029764;28;20679;-86
2022/05/10 02:20:03;;;;;;;;;;;;;;;14.57;85.48;101882.25;5054450;28;20089;-86
2022/05/10 02:22:37;;;;;;;38.25;20.27;;;;;;;14.48;90.67;101882.22;5050479;28;20086;-86
2022/05/10 02:25:13;;;;;;;33.35;20.85;;;;;;;14.49;90.85;101870.47;5056307;28;20166;-86
2022/05/10 02:27:48;;;;;;;37.20;21.38;;;;;;;14.50;91.02;101868.63;5053910;28;20108;-86
2022/05/10 02:30:18;;;;;;;43.60;22.63;;;;;;;14.48;91.09;101866.09;5032310;28;20029;-86
2022/05/10 02:33:08;;;;;;;37.13;22.87;;;;;;;14.48;90.20;101862.56;5039063;28;20074;-86
2022/05/10 02:35:43;;;;;;;36.83;22.45;;;;;;;14.49;91.25;101858.88;5049934;28;20135;-86
2022/05/10 02:38:12;;;;;;;36.72;22.25;;;;;;;14.48;91.35;101859.88;5053885;28;20051;-86
2022/05/10 02:40:41;;;;;;;35.97;22.80;;;;;;;14.51;91.42;101862.22;5050990;28;20021;-86
2022/05/10 02:43:10;;;;;;;45.00;23.23;;;;;;;14.49;91.42;101864.25;5046101;28;20211;-86
2022/05/10 02:45:37;;;;;;;37.90;22.85;;;;;;;14.50;91.37;101857.88;5027988;28;20029;-86
2022/05/10 02:48:03;;;;;;;36.55;23.02;;;;;;;14.47;91.43;101852.81;5048140;28;20103;-85
2022/05/10 02:50:32;;;;;;;40.15;23.48;;;;;;;14.44;91.13;101853.97;5047941;28;20469;-86
2022/05/10 02:52:58;;;;;;;43.00;23.38;;;;;;;14.36;91.56;101854.78;5049071;28;20019;-86
2022/05/10 02:55:31;;;;;;;45.15;23.88;;;;;;;14.32;91.91;101847.19;5048282;28;20029;-86
2022/05/10 02:58:00;;;;;;;41.83;23.17;;;;;;;14.28;92.26;101856.59;5031226;28;20044;-87
2022/05/10 03:00:26;;;;;;;41.65;24.70;;;;;;;14.27;92.63;101846.84;5029631;28;20083;-87
2022/05/10 03:02:58;;;;;;;46.90;23.63;;;;;;;14.22;92.71;101844.63;5049175;28;20041;-86
2022/05/10 03:05:24;;;;;;;45.90;24.60;;;;;;;14.16;92.90;101842.59;5051289;28;20068;-87
2022/05/10 03:07:50;;;;;;;42.45;23.85;;;;;;;14.13;93.39;101834.88;5021521;28;20061;-86
2022/05/10 03:10:15;;;;;;;46.53;24.60;;;;;;;14.18;94.13;101836.06;5021511;28;20040;-88
2022/05/10 03:12:41;;;;;;;46.67;23.70;;;;;;;14.22;93.69;101841.13;5040227;28;20041;-87
2022/05/10 03:15:06;;;;;;;50.45;24.38;;;;;;;14.25;96.05;101833.56;5037926;28;20115;-87
2022/05/10 03:17:33;;;;;;;57.30;25.20;;;;;;;14.26;97.47;101834.44;5038698;28;20029;-88
2022/05/10 03:19:58;;;;;;;50.15;24.50;;;;;;;14.24;95.34;101834.59;5041409;28;20043;-87
2022/05/10 03:22:23;;;;;;;46.05;24.60;;;;;;;14.27;97.57;101831.56;5039724;28;20059;-86
2022/05/10 03:24:49;;;;;;;43.72;24.65;;;;;;;14.24;95.90;101826.53;5040764;28;20284;-86
2022/05/10 03:27:16;;;;;;;49.35;24.77;;;;;;;14.26;96.49;101821.00;5025390;28;20021;-88
2022/05/10 03:29:42;;;;;;;55.97;24.75;;;;;;;14.25;97.02;101820.13;5043697;28;20025;-88
2022/05/10 03:32:09;;;;;;;48.53;24.85;;;;;;;14.28;97.19;101814.44;5039502;28;20045;-86
2022/05/10 03:37:18;;;;;;;47.63;24.95;;;;;;;14.30;98.80;101811.59;5038990;28;20357;-86
2022/05/10 03:39:43;;;;;;;50.38;24.25;;;;;;;14.32;96.22;101812.28;5039582;28;20017;-85
2022/05/10 03:42:10;;;;;;;42.63;23.95;;;;;;;14.33;94.14;101817.50;5038156;28;20017;-89
2022/05/10 03:44:35;;;;;;;42.97;23.80;;;;;;;14.38;97.21;101818.88;5023741;28;20327;-86
2022/05/10 03:47:01;;;;;;;53.83;24.63;;;;;;;14.38;95.00;101810.81;5039708;28;20032;-85
2022/05/10 03:49:27;;;;;;;45.50;24.33;;;;;;;14.37;94.10;101804.56;5038906;28;20017;-86
2022/05/10 03:51:56;;;;;;;41.42;24.50;;;;;;;14.34;93.20;101802.19;5038803;28;20176;-87
2022/05/10 03:54:22;;;;;;;45.45;24.30;;;;;;;14.37;92.75;101799.19;5040284;28;20471;-88
2022/05/10 03:56:48;;;;;;;41.33;23.45;;;;;;;14.33;92.60;101800.53;5040582;28;20024;-88
2022/05/10 03:59:14;;;;;;;45.47;23.83;;;;;;;14.35;91.85;101795.81;5043015;28;20039;-86
2022/05/10 04:01:39;;;;;;;48.45;24.58;;;;;;;14.34;92.22;101805.75;5039650;28;20078;-87
2022/05/10 04:04:04;;;;;;;50.20;23.52;;;;;;;14.29;91.68;101800.03;5037822;28;20116;-85
2022/05/10 04:06:31;;;;;;;46.35;24.30;;;;;;;14.28;92.04;101798.31;5037161;28;20029;-85
2022/05/10 04:08:57;;;;;;;44.92;23.83;;;;;;;14.27;91.88;101798.47;5038182;28;20132;-84
2022/05/10 04:11:22;;;;;;;47.80;23.83;;;;;;;14.30;91.85;101808.91;5037705;28;20487;-84
2022/05/10 04:13:47;;;;;;;46.42;23.35;;;;;;;14.30;91.46;101799.00;5039081;28;20083;-85
2022/05/10 04:16:13;;;;;;;43.83;23.65;;;;;;;14.29;91.29;101800.03;5022145;28;20119;-86
2022/05/10 04:18:38;;;;;;;46.85;23.42;;;;;;;14.31;91.53;101798.00;5041565;28;20036;-85
2022/05/10 04:21:04;;;;;;;46.92;22.88;;;;;;;14.32;91.25;101796.16;5040943;28;20619;-86
2022/05/10 04:23:29;;;;;;;42.90;23.05;;;;;;;14.33;90.97;101798.69;5040070;28;20084;-86
2022/05/10 04:26:01;;;;;;;42.60;23.25;;;;;;;14.36;90.88;101795.66;5042826;28;20070;-87
2022/05/10 04:28:26;;;;;;;;;;;;;;;14.49;89.87;101792.53;5046833;28;20509;-87
2022/05/10 04:30:51;;;;;;;47.23;23.23;;;;;;;14.52;90.87;101783.28;5046442;28;19908;-85
2022/05/10 04:33:17;;;;;;;45.17;23.08;;;;;;;14.57;89.96;101780.94;5045258;28;20301;-86
2022/05/10 04:35:42;;;;;;;49.05;23.67;;;;;;;14.65;90.00;101781.00;5059163;28;20518;-85
2022/05/10 04:38:08;;;;;;;44.25;22.42;;;;;;;14.70;89.13;101777.81;5065560;28;20024;-85
2022/05/10 04:43:20;;;;;;;35.25;21.23;;;;;;;14.80;87.63;101781.19;5064616;28;20031;-86
2022/05/10 04:45:45;;;;;;;38.47;21.17;;;;;;;14.80;86.90;101775.81;5046878;28;20024;-86
2022/05/10 04:48:11;;;;;;;44.60;21.83;;;;;;;14.83;87.20;101780.84;5046678;28;20055;-87
2022/05/10 04:50:36;;;;;;;47.25;20.77;;;;;;;14.86;88.62;101780.50;5065796;28;20112;-87
2022/05/10 04:53:02;;;;;;;57.17;22.00;;;;;;;14.87;87.66;101781.38;5064207;28;20067;-87
2022/05/10 04:55:27;;;;;;;48.97;21.40;;;;;;;14.88;87.42;101770.44;5063910;28;20586;-86
2022/05/10 04:57:52;;;;;;;41.20;21.30;;;;;;;14.93;87.73;101775.31;5065092;28;20218;-86
2022/05/10 05:00:18;;;;;;;44.20;20.67;;;;;;;15.01;87.86;101779.88;5048004;28;20395;-88
2022/05/10 05:02:50;;;;;;;51.20;21.50;;;;;;;15.02;87.49;101776.16;5067230;28;20039;-86
2022/05/10 05:05:16;;;;;;;38.72;21.48;;;;;;;15.06;86.61;101777.50;5067060;28;20049;-86
2022/05/10 05:07:41;;;;;;;51.13;22.13;;;;;;;15.09;86.10;101778.00;5065196;28;20612;-87
2022/05/10 05:10:07;;;;;;;47.67;22.00;;;;;;;15.09;85.99;101775.31;5065901;28;20027;-88
2022/05/10 05:12:34;;;;;;;41.35;21.88;;;;;;;15.18;85.79;101786.09;5061207;28;20074;-88
2022/05/10 05:15:00;;;;;;;40.63;21.85;;;;;;;15.22;85.39;101784.72;5064346;28;20104;-87
2022/05/10 05:17:26;;;;;;;42.10;21.27;;;;;;;15.27;85.43;101777.84;5053248;28;20090;-87
2022/05/10 05:19:51;;;;;;;37.80;21.48;;;;;;;15.27;84.71;101777.84;5033825;28;20020;-87
2022/05/10 05:22:17;;;;;;;51.00;23.15;;;;;;;15.39;85.64;101781.00;5031453;28;20078;-86
2022/05/10 05:24:42;;;;;;;40.70;22.17;;;;;;;15.39;85.74;101770.25;5034597;28;20025;-86
2022/05/10 05:27:07;;;;;;;42.47;22.45;;;;;;;15.43;84.90;101777.00;5050836;28;20021;-86
2022/05/10 05:29:33;;;;;;;45.40;22.58;;;;;;;15.44;84.34;101769.75;5050233;28;20031;-84
2022/05/10 05:32:04;;;;;;;42.75;21.58;;;;;;;15.56;84.98;101781.81;5051683;28;20070;-86
2022/05/10 05:34:29;;;;;;;45.03;22.60;;;;;;;15.60;83.97;101783.19;5051840;28;20106;-86
2022/05/10 05:39:38;;;;;;;41.08;22.55;;;;;;;15.70;83.52;101774.06;5055274;28;20248;-86
2022/05/10 05:42:03;;;;;;;38.85;21.60;;;;;;;15.72;82.70;101780.97;5054468;28;20419;-86
2022/05/10 05:44:29;;;;;;;43.50;21.90;;;;;;;15.75;83.02;101772.59;5052625;28;20024;-85
2022/05/10 05:46:57;;;;;;;35.90;20.50;;;;;;;15.81;82.90;101781.81;5044643;28;20025;-86
2022/05/10 05:49:24;;;;;;;39.75;21.00;;;;;;;15.82;83.05;101768.19;5040942;28;20059;-85
2022/05/10 05:51:49;;;;;;;47.50;21.45;;;;;;;15.88;82.63;101772.03;5040699;28;20049;-85
2022/05/10 05:54:14;;;;;;;48.20;21.63;;;;;;;15.94;82.66;101770.50;5032699;28;20013;-85
2022/05/10 05:56:39;;;;;;;41.83;21.45;;;;;;;15.99;82.72;101760.88;5033276;28;20040;-85
2022/05/10 05:59:05;;;;;;;45.08;20.70;;;;;;;16.12;82.20;101763.00;5055046;28;20095;-85
2022/05/10 06:01:30;;;;;;;38.95;19.77;;;;;;;16.21;82.41;101753.03;5050575;28;20059;-85
2022/05/10 06:03:56;;;;;;;35.33;19.75;;;;;;;16.35;81.31;101754.97;5032407;28;20028;-85
2022/05/10 06:06:22;;;;;;;39.47;18.80;;;;;;;16.47;80.53;101763.50;5050191;28;20547;-86
2022/05/10 06:08:48;;;;;;;33.90;19.25;;;;;;;16.53;80.30;101760.13;5051901;28;20368;-85
2022/05/10 06:11:14;;;;;;;36.53;19.50;;;;;;;16.61;80.10;101761.91;5050109;28;20021;-85
2022/05/10 06:13:39;;;;;;;43.03;19.45;;;;;;;16.73;80.28;101762.31;5050919;28;20036;-88
2022/05/10 06:16:07;;;;;;;38.38;19.83;;;;;;;16.85;79.70;101768.19;5049568;28;20464;-87
2022/05/10 06:18:32;;;;;;;42.25;18.95;;;;;;;16.95;79.76;101758.84;5048961;28;20089;-86
2022/05/10 06:20:57;;;;;;;29.45;18.70;;;;;;;17.03;79.54;101763.31;5059507;28;20029;-85
2022/05/10 06:23:23;;;;;;;35.60;18.98;;;;;;;17.13;78.79;101755.81;5058480;28;20023;-87
2022/05/10 06:25:48;;;;;;;31.92;19.02;;;;;;;17.25;79.00;101760.78;5060610;28;20604;-86
2022/05/10 06:28:13;;;;;;;29.75;19.13;;;;;;;17.37;78.38;101762.00;5047959;28;20535;-86
2022/05/10 06:30:39;;;;;;;37.65;19.33;;;;;;;17.44;78.23;101759.41;5057258;28;20032;-83
2022/05/10 06:33:04;;;;;;;37.72;19.17;;;;;;;17.57;77.69;101751.50;5055738;28;20166;-85
2022/05/10 06:35:29;;;;;;;33.70;18.48;;;;;;;17.65;77.01;101755.97;5029410;28;20039;-88
2022/05/10 06:40:39;;;;;;;38.33;17.38;;;;;;;17.86;76.04;101758.81;5051041;28;20031;-86
2022/05/10 06:43:04;;;;;;;29.95;17.02;;;;;;;17.98;74.52;101752.94;5029549;28;20135;-84
2022/05/10 06:45:30;;;;;;;25.65;16.42;;;;;;;18.08;74.63;101751.59;5048624;28;20498;-84
2022/05/10 06:47:55;;;;;;;23.05;15.13;;;;;;;18.26;73.66;101750.34;5047721;28;20032;-85
2022/05/10 06:50:23;;;;;;;27.42;15.32;;;;;;;18.41;72.47;101751.19;5047731;28;20029;-86
2022/05/10 06:52:54;;;;;;;23.40;14.88;;;;;;;18.54;72.46;101744.22;5051459;28;20082;-84
2022/05/10 06:55:20;;;;;;;;;;;;;;;18.68;72.52;101747.91;5049679;28;20502;-85
2022/05/10 06:57:45;;;;;;;29.02;14.10;;;;;;;18.82;70.74;101741.59;5054246;28;20271;-85
2022/05/10 07:00:13;;;;;;;23.75;12.98;;;;;;;18.92;70.04;101744.81;5048018;28;20496;-86
2022/05/10 07:02:38;;;;;;;20.02;13.32;;;;;;;19.01;69.85;101738.25;5037258;28;20734;-86
2022/05/10 07:05:05;;;;;;;18.63;12.30;;;;;;;19.05;69.60;101738.69;5060348;28;20401;-83
2022/05/10 07:07:30;;;;;;;18.52;11.75;;;;;;;19.10;70.03;101730.00;5062210;28;20073;-82
2022/05/10 07:09:55;;;;;;;21.55;12.90;;;;;;;19.16;69.21;101730.06;5061247;28;20119;-82
2022/05/10 07:12:21;;;;;;;22.40;12.40;;;;;;;19.35;69.53;101723.09;5055720;28;20048;-84
2022/05/10 07:14:46;;;;;;;19.10;11.80;;;;;;;19.54;67.99;101720.72;5055267;28;20020;-83
2022/05/10 07:17:14;;;;;;;22.08;11.70;;;;;;;19.60;67.50;101719.91;5061340;28;20165;-82
2022/05/10 07:19:40;;;;;;;22.27;12.25;;;;;;;19.64;67.29;101718.50;5050675;28;20070;-82
2022/05/10 07:22:05;;;;;;;28.02;12.00;;;;;;;19.75;67.47;101715.25;5050980;28;20036;-83
2022/05/10 07:24:30;;;;;;;18.63;11.20;;;;;;;19.93;66.25;101722.00;5060543;28;20605;-83
2022/05/10 07:26:56;;;;;;;17.60;11.40;;;;;;;20.03;66.23;101724.34;5055447;28;20024;-81
2022/05/10 07:29:22;;;;;;;20.42;11.40;;;;;;;20.11;65.23;101718.72;5059463;28;20099;-84
2022/05/10 07:31:48;;;;;;;16.95;11.00;;;;;;;20.17;65.47;101723.34;5057450;28;20056;-84
2022/05/10 07:34:13;;;;;;;24.40;10.90;;;;;;;20.31;65.04;101711.50;5054254;28;20514;-85
2022/05/10 07:36:39;;;;;;;19.92;10.13;;;;;;;20.58;64.97;101716.13;5057514;28;20073;-84
2022/05/10 07:39:10;;;;;;;18.02;10.85;;;;;;;20.62;63.26;101709.25;5040787;28;20024;-82
2022/05/10 07:41:36;;;;;;;;;;;;;;;20.72;63.56;101717.84;5049882;28;20025;-83
2022/05/10 07:44:03;;;;;;;20.55;10.43;;;;;;;20.65;63.27;101709.69;5054844;28;19913;-83
2022/05/10 07:46:29;;;;;;;18.65;10.30;;;;;;;20.75;63.44;101706.56;5071950;28;20032;-83
2022/05/10 07:48:54;;;;;;;20.45;10.10;;;;;;;20.78;62.58;101700.75;5053151;28;20077;-83
2022/05/10 07:51:21;;;;;;;18.40;9.40;;;;;;;20.79;62.34;101707.84;5057851;28;20036;-82
2022/05/10 07:53:49;;;;;;;17.77;9.52;;;;;;;20.78;62.44;101697.19;5046584;28;20484;-89
2022/05/10 07:56:15;;;;;;;19.88;9.65;;;;;;;20.75;61.94;101695.72;5029028;28;20492;-86
2022/05/10 07:58:43;;;;;;;23.50;10.00;;;;;;;20.73;63.25;101700.53;5036537;28;20039;-88
2022/05/10 08:01:09;;;;;;;23.35;9.15;;;;;;;20.70;62.15;101698.22;5061878;28;20260;-88
2022/05/10 08:03:35;;;;;;;18.75;9.90;;;;;;;20.71;62.25;101699.91;5057082;28;20261;-87
2022/05/10 08:06:01;;;;;;;26.17;9.70;;;;;;;20.69;62.41;101707.44;5038756;28;20055;-86
2022/05/10 08:08:29;;;;;;;12.65;8.98;;;;;;;20.76;62.97;101705.53;5039211;28;20024;-83
2022/05/10 08:10:55;;;;;;;19.90;9.75;;;;;;;20.74;62.23;101701.34;5060565;28;20032;-83
2022/05/10 08:13:24;;;;;;;20.45;9.38;;;;;;;20.77;63.13;101698.22;5061632;28;20402;-83
2022/05/10 08:15:54;;;;;;;22.55;9.35;;;;;;;20.72;62.61;101700.72;5059507;28;20020;-83
2022/05/10 08:18:21;;;;;;;19.25;9.55;;;;;;;20.72;62.21;101703.44;5043582;28;20356;-85
2022/05/10 08:20:48;;;;;;;21.08;9.23;;;;;;;20.73;61.97;101703.25;5059688;28;20064;-85
2022/05/10 08:23:21;;;;;;;21.67;9.30;;;;;;;20.77;63.25;101706.38;5058672;28;20020;-87
2022/05/10 08:25:48;;;;;;;19.50;9.00;;;;;;;20.83;62.60;101694.69;5059571;28;20520;-83
2022/05/10 08:28:13;;;;;;;22.95;8.55;;;;;;;20.83;61.32;101689.25;5045342;28;20017;-83
2022/05/10 08:30:44;;;;;;;23.20;8.25;;;;;;;20.84;61.95;101694.47;5038922;28;20094;-83
2022/05/10 08:33:10;;;;;;;;;;;;;;;20.93;61.55;101694.28;5038498;28;20398;-84
2022/05/10 08:35:37;;;;;;;19.83;8.10;;;;;;;20.83;59.92;101679.22;5054724;28;19912;-84
2022/05/10 08:38:02;;;;;;;19.05;8.82;;;;;;;20.83;60.72;101684.66;5058315;28;20020;-83
2022/05/10 08:40:32;;;;;;;14.02;8.02;;;;;;;20.98;60.24;101686.34;5057092;28;20564;-82
2022/05/10 08:43:02;;;;;;;19.55;8.48;;;;;;;21.13;59.63;101691.53;5056740;28;20040;-83
2022/05/10 08:45:29;;;;;;;14.40;8.10;;;;;;;21.26;58.39;101682.53;5058566;28;20036;-83
2022/05/10 08:47:55;;;;;;;21.33;7.50;;;;;;;21.35;58.51;101673.94;5055755;28;20121;-82
2022/05/10 08:50:21;;;;;;;16.15;7.50;;;;;;;21.44;57.99;101677.28;5059648;28;20070;-81
2022/05/10 08:52:51;;;;;;;15.15;7.47;;;;;;;21.53;57.02;101681.44;5059603;28;20035;-86
2022/05/10 08:55:21;;;;;;;15.90;7.50;;;;;;;21.64;56.37;101679.09;5061110;28;20074;-83
2022/05/10 08:58:20;;;;;;;14.80;7.88;;;;;;;21.83;54.53;101680.94;5063371;28;20367;-84
2022/05/10 09:00:50;;;;;;;13.77;7.05;;;;;;;21.90;53.86;101681.72;5066096;28;20029;-82
2022/05/10 09:03:39;;;;;;;17.83;7.35;;;;;;;21.97;54.28;101677.09;5046579;28;20047;-83
2022/05/10 09:06:20;;;;;;;22.63;7.53;;;;;;;22.06;54.69;101682.28;5043584;28;20612;-84
2022/05/10 09:09:22;;;;;;;14.60;7.70;;;;;;;22.05;54.36;101680.63;5040453;28;20013;-82
2022/05/10 09:12:16;;;;;;;14.00;7.57;;;;;;;22.15;54.64;101659.22;5039304;28;20060;-83
2022/05/10 09:15:03;;;;;;;14.60;7.68;;;;;;;22.26;53.52;101653.06;5036356;28;20098;-84
2022/05/10 09:17:31;;;;;;;15.50;7.50;;;;;;;22.43;53.37;101655.31;5042975;28;20409;-83
2022/05/10 09:19:57;;;;;;;11.63;7.30;;;;;;;22.64;52.96;101664.97;5041793;28;20135;-88
2022/05/10 09:22:35;;;;;;;16.20;8.27;;;;;;;22.62;52.01;101659.75;5041467;28;20071;-87
2022/05/10 09:25:08;;;;;;;13.27;7.90;;;;;;;22.56;52.11;101663.38;5040560;28;20032;-88
2022/05/10 09:27:34;;;;;;;11.43;7.75;;;;;;;22.59;51.83;101659.34;5047351;28;20482;-88
2022/05/10 09:30:00;;;;;;;13.40;7.72;;;;;;;22.69;52.20;101659.69;5059575;28;20035;-86
2022/05/10 09:35:25;;;;;;;15.00;7.75;;;;;;;22.81;52.50;101654.34;5059354;28;20039;-88
2022/05/10 09:37:56;;;;;;;20.15;7.55;;;;;;;22.88;52.50;101652.44;5061022;28;20025;-87
2022/05/10 09:40:46;;;;;;;16.95;7.78;;;;;;;22.80;52.33;101648.09;5042269;28;20040;-87
2022/05/10 09:43:31;;;;;;;11.60;7.80;;;;;;;22.78;51.86;101652.09;5060789;28;20035;-87
2022/05/10 09:46:06;;;;;;;18.80;7.70;;;;;;;22.68;52.31;101652.59;5057005;28;20169;-88
2022/05/10 09:48:32;;;;;;;20.17;7.82;;;;;;;22.63;51.60;101633.38;5060354;28;20059;-85
2022/05/10 09:50:57;;;;;;;20.80;8.00;;;;;;;22.79;52.07;101638.25;5060858;28;20028;-87
2022/05/10 09:53:32;;;;;;;17.05;7.60;;;;;;;22.97;51.91;101637.44;5060332;28;20024;-87
2022/05/10 09:56:02;;;;;;;25.08;7.55;;;;;;;23.13;51.28;101627.06;5060473;28;20078;-88
2022/05/10 09:58:29;;;;;;;;;;;;;;;23.32;51.12;101623.28;5062533;28;20108;-88
2022/05/10 10:00:56;;;;;;;13.95;8.10;;;;;;;23.54;50.70;101622.81;5061227;28;19995;-87
2022/05/10 10:03:39;;;;;;;15.25;7.30;;;;;;;23.86;50.33;101639.00;5060395;28;20021;-86
2022/05/10 10:06:17;;;;;;;13.07;6.90;;;;;;;24.07;48.25;101627.59;5060576;28;20368;-86
2022/05/10 10:08:48;;;;;;;15.27;6.82;;;;;;;24.37;48.63;101623.97;5060752;28;20407;-85
2022/05/10 10:11:32;;;;;;;16.55;7.10;;;;;;;24.61;46.51;101618.59;5060194;28;20104;-85
2022/05/10 10:13:59;;;;;;;17.85;7.00;;;;;;;24.42;46.93;101612.34;5060483;28;20047;-86
2022/05/10 10:16:32;;;;;;;14.73;6.60;;;;;;;24.31;46.95;101612.09;5060879;28;20020;-83
2022/05/10 10:19:04;;;;;;;18.50;7.47;;;;;;;24.22;46.29;101621.72;5059957;28;20036;-86
2022/05/10 10:21:41;;;;;;;14.98;6.45;;;;;;;24.25;47.26;101612.22;5059845;28;20020;-86
2022/05/10 10:24:06;;;;;;;20.30;6.32;;;;;;;24.36;47.27;101609.50;5060031;28;20048;-86
2022/05/10 10:26:40;;;;;;;12.63;6.00;;;;;;;24.72;46.86;101610.41;5058857;28;20028;-86
2022/05/10 10:29:18;;;;;;;12.82;5.50;;;;;;;25.23;43.21;101605.25;5040578;28;20029;-85
2022/05/10 10:31:49;;;;;;;17.00;6.20;;;;;;;25.68;42.74;101604.56;5021996;28;20110;-85
2022/05/10 10:34:19;;;;;;;19.65;5.85;;;;;;;25.70;41.73;101609.78;5021110;28;20024;-85
2022/05/10 10:36:56;;;;;;;13.32;5.45;;;;;;;26.13;42.90;101619.34;5039621;28;20475;-84
2022/05/10 10:39:32;;;;;;;18.60;6.45;;;;;;;26.09;40.88;101620.09;5040642;28;20033;-84
2022/05/10 10:42:10;;;;;;;18.15;6.50;;;;;;;25.81;41.46;101617.09;5040065;28;20531;-85
2022/05/10 10:44:43;;;;;;;13.98;6.03;;;;;;;25.49;41.17;101612.13;5040786;28;20427;-87
2022/05/10 10:47:22;;;;;;;15.77;6.18;;;;;;;25.27;41.88;101605.63;5040550;28;20017;-85
2022/05/10 10:49:53;;;;;;;24.88;6.90;;;;;;;25.06;41.83;101601.59;5040205;28;20025;-87
2022/05/10 10:52:19;;;;;;;14.35;6.10;;;;;;;25.29;42.64;101608.97;5040068;28;20118;-87
2022/05/10 10:54:46;;;;;;;18.05;5.93;;;;;;;25.39;41.74;101595.50;5041335;28;20148;-86
2022/05/10 10:57:48;;;;;;;12.18;5.82;;;;;;;25.34;42.10;101589.06;5039915;28;20052;-87
2022/05/10 11:00:18;;;;;;;23.35;5.90;;;;;;;25.28;41.90;101593.63;5041568;28;20037;-82
2022/05/10 11:03:11;;;;;;;14.13;6.45;;;;;;;25.27;41.92;101584.59;5041971;28;20076;-81
2022/05/10 11:05:45;;;;;;;20.60;7.15;;;;;;;25.04;42.60;101585.44;5042506;28;20029;-82
2022/05/10 11:08:29;;;;;;;16.35;7.03;;;;;;;24.99;42.79;101584.50;5043176;28;20431;-81
2022/05/10 11:11:12;;;;;;;15.88;7.00;;;;;;;25.16;43.20;101581.84;5025067;28;20033;-82
2022/05/10 11:13:58;;;;;;;16.15;6.07;;;;;;;25.67;42.09;101583.72;5041932;28;20057;-83
2022/05/10 11:16:52;;;;;;;15.85;6.00;;;;;;;26.32;42.02;101578.06;5043916;28;20344;-82
2022/05/10 11:19:39;;;;;;;14.30;6.10;;;;;;;26.33;39.91;101588.75;5023258;28;20483;-83
2022/05/10 11:22:24;;;;;;;14.77;5.43;;;;;;;26.60;39.53;101564.25;5041560;28;20037;-83
2022/05/10 11:25:02;;;;;;;23.73;6.68;;;;;;;26.41;39.83;101574.66;5041718;28;20120;-81
2022/05/10 11:27:39;;;;;;;21.27;6.75;;;;;;;25.93;40.29;101567.78;5028752;28;20805;-82
2022/05/10 11:30:19;;;;;;;16.92;6.57;;;;;;;25.57;41.20;101567.13;5060319;28;20123;-83
2022/05/10 11:33:23;;;;;;;16.65;6.80;;;;;;;25.40;41.48;101558.88;5056881;28;20559;-82
2022/05/10 11:36:00;;;;;;;18.65;6.28;;;;;;;25.33;41.28;101560.09;5039075;28;20056;-83
2022/05/10 11:39:21;;;;;;;9.15;5.82;;;;;;;25.64;41.23;101559.59;5037975;28;20051;-86
2022/05/10 11:42:13;;;;;;;10.30;5.60;;;;;;;25.92;41.47;101546.97;5019101;28;20107;-83
2022/05/10 11:44:54;;;;;;;16.30;5.90;;;;;;;26.16;40.00;101538.66;5040634;28;20099;-84
2022/05/10 11:47:34;;;;;;;;;;;;;;;26.33;39.54;101542.22;5021944;28;20033;-86
2022/05/10 11:50:24;;;;;;;11.98;5.53;;;;;;;26.22;40.15;101543.97;5038505;28;19909;-84